sensor_id;sensor_type;location;lat;lon;timestamp;noise_LAeq;noise_LA_min;noise_LA_max;noise_LA01;noise_LA95
76767;Laerm;65707;52.362;6.588;2023-02-03T00:01:08;41.78;32.61;63.56;;
76767;Laerm;65707;52.362;6.588;2023-02-03T00:03:34;43.82;33.09;70.17;;
76767;Laerm;65707;52.362;6.588;2023-02-03T00:06:03;45.88;33.73;71.09;;
76767;Laerm;65707;52.362;6.588;2023-02-03T00:08:30;43.38;33.45;67.39;;
76767;Laerm;65707;52.362;6.588;2023-02-03T00:10:58;37.72;32.02;60.23;;
76767;Laerm;65707;52.362;6.588;2023-02-03T00:13:24;40.90;32.80;60.19;;
76767;Laerm;65707;52.362;6.588;2023-02-03T00:15:51;54.25;34.86;76.11;;
76767;Laerm;65707;52.362;6.588;2023-02-03T00:18:18;65.16;32.38;82.49;;
76767;Laerm;65707;52.362;6.588;2023-02-03T00:20:45;40.66;33.22;60.98;;
76767;Laerm;65707;52.362;6.588;2023-02-03T00:23:13;39.76;32.63;58.40;;
76767;Laerm;65707;52.362;6.588;2023-02-03T00:25:40;40.48;31.90;65.19;;
76767;Laerm;65707;52.362;6.588;2023-02-03T00:28:07;50.75;34.07;78.09;;
76767;Laerm;65707;52.362;6.588;2023-02-03T00:30:34;45.94;33.36;74.34;;
76767;Laerm;65707;52.362;6.588;2023-02-03T00:33:02;45.92;33.66;66.93;;
76767;Laerm;65707;52.362;6.588;2023-02-03T00:35:29;51.23;36.01;72.99;;
76767;Laerm;65707;52.362;6.588;2023-02-03T00:37:57;47.90;33.26;76.96;;
76767;Laerm;65707;52.362;6.588;2023-02-03T00:40:26;45.59;35.13;64.25;;
76767;Laerm;65707;52.362;6.588;2023-02-03T00:42:54;43.14;34.03;69.30;;
76767;Laerm;65707;52.362;6.588;2023-02-03T00:45:22;48.90;33.15;74.74;;
76767;Laerm;65707;52.362;6.588;2023-02-03T00:47:49;39.79;32.14;62.65;;
76767;Laerm;65707;52.362;6.588;2023-02-03T00:50:16;39.53;32.36;61.09;;
76767;Laerm;65707;52.362;6.588;2023-02-03T00:52:43;45.09;32.52;70.92;;
76767;Laerm;65707;52.362;6.588;2023-02-03T00:55:09;37.11;31.81;53.26;;
76767;Laerm;65707;52.362;6.588;2023-02-03T00:57:37;48.26;32.45;74.81;;
76767;Laerm;65707;52.362;6.588;2023-02-03T01:00:06;48.13;33.63;72.95;;
76767;Laerm;65707;52.362;6.588;2023-02-03T01:02:33;44.06;32.75;64.08;;
76767;Laerm;65707;52.362;6.588;2023-02-03T01:05:00;49.19;32.75;70.52;;
76767;Laerm;65707;52.362;6.588;2023-02-03T01:07:30;45.07;32.71;65.01;;
76767;Laerm;65707;52.362;6.588;2023-02-03T01:09:57;45.84;32.25;71.07;;
76767;Laerm;65707;52.362;6.588;2023-02-03T01:12:23;38.16;31.93;58.16;;
76767;Laerm;65707;52.362;6.588;2023-02-03T01:14:51;38.09;32.22;54.13;;
76767;Laerm;65707;52.362;6.588;2023-02-03T01:17:19;40.27;32.85;60.67;;
76767;Laerm;65707;52.362;6.588;2023-02-03T01:19:45;41.54;32.26;55.83;;
76767;Laerm;65707;52.362;6.588;2023-02-03T01:22:12;70.51;33.32;84.93;;
76767;Laerm;65707;52.362;6.588;2023-02-03T01:24:39;41.73;32.27;64.13;;
76767;Laerm;65707;52.362;6.588;2023-02-03T01:27:06;39.03;31.60;62.16;;
76767;Laerm;65707;52.362;6.588;2023-02-03T01:29:32;41.27;32.23;62.38;;
76767;Laerm;65707;52.362;6.588;2023-02-03T01:32:01;40.51;31.69;61.10;;
76767;Laerm;65707;52.362;6.588;2023-02-03T01:34:28;40.76;32.20;60.65;;
76767;Laerm;65707;52.362;6.588;2023-02-03T01:36:55;38.42;31.35;60.49;;
76767;Laerm;65707;52.362;6.588;2023-02-03T01:39:22;38.31;31.16;61.82;;
76767;Laerm;65707;52.362;6.588;2023-02-03T01:41:51;44.26;32.12;67.91;;
76767;Laerm;65707;52.362;6.588;2023-02-03T01:44:42;46.49;31.74;73.37;;
76767;Laerm;65707;52.362;6.588;2023-02-03T01:47:22;66.72;33.65;85.31;;
76767;Laerm;65707;52.362;6.588;2023-02-03T01:50:02;43.72;32.43;63.07;;
76767;Laerm;65707;52.362;6.588;2023-02-03T01:52:32;44.44;32.19;67.22;;
76767;Laerm;65707;52.362;6.588;2023-02-03T01:55:04;41.78;31.65;66.37;;
76767;Laerm;65707;52.362;6.588;2023-02-03T01:57:37;44.71;31.45;68.93;;
76767;Laerm;65707;52.362;6.588;2023-02-03T02:00:07;40.46;32.07;63.75;;
76767;Laerm;65707;52.362;6.588;2023-02-03T02:02:36;46.57;33.05;69.11;;
76767;Laerm;65707;52.362;6.588;2023-02-03T02:05:10;43.42;32.82;73.84;;
76767;Laerm;65707;52.362;6.588;2023-02-03T02:07:41;42.57;32.97;62.26;;
76767;Laerm;65707;52.362;6.588;2023-02-03T02:10:10;46.20;32.34;69.35;;
76767;Laerm;65707;52.362;6.588;2023-02-03T02:12:37;37.41;31.44;54.57;;
76767;Laerm;65707;52.362;6.588;2023-02-03T02:15:05;43.04;32.45;67.61;;
76767;Laerm;65707;52.362;6.588;2023-02-03T02:18:13;47.74;32.95;72.68;;
76767;Laerm;65707;52.362;6.588;2023-02-03T02:21:23;46.76;32.83;75.06;;
76767;Laerm;65707;52.362;6.588;2023-02-03T02:27:34;48.78;33.54;75.16;;
76767;Laerm;65707;52.362;6.588;2023-02-03T02:30:41;38.58;32.19;57.56;;
76767;Laerm;65707;52.362;6.588;2023-02-03T02:33:31;44.67;32.69;66.35;;
76767;Laerm;65707;52.362;6.588;2023-02-03T02:36:13;38.85;31.46;57.48;;
76767;Laerm;65707;52.362;6.588;2023-02-03T02:38:56;38.48;32.82;59.19;;
76767;Laerm;65707;52.362;6.588;2023-02-03T02:41:33;44.58;32.01;69.49;;
76767;Laerm;65707;52.362;6.588;2023-02-03T02:44:10;39.80;32.05;60.04;;
76767;Laerm;65707;52.362;6.588;2023-02-03T02:46:46;45.00;33.21;69.13;;
76767;Laerm;65707;52.362;6.588;2023-02-03T02:49:19;40.76;32.69;60.50;;
76767;Laerm;65707;52.362;6.588;2023-02-03T02:51:49;38.69;33.07;57.81;;
76767;Laerm;65707;52.362;6.588;2023-02-03T02:54:21;41.34;32.79;61.83;;
76767;Laerm;65707;52.362;6.588;2023-02-03T02:56:55;43.16;32.71;68.27;;
76767;Laerm;65707;52.362;6.588;2023-02-03T02:59:23;46.94;32.55;68.78;;
76767;Laerm;65707;52.362;6.588;2023-02-03T03:01:50;42.51;32.75;63.78;;
76767;Laerm;65707;52.362;6.588;2023-02-03T03:04:23;52.14;33.38;78.13;;
76767;Laerm;65707;52.362;6.588;2023-02-03T03:06:58;51.57;31.96;81.86;;
76767;Laerm;65707;52.362;6.588;2023-02-03T03:09:35;44.08;33.49;67.44;;
76767;Laerm;65707;52.362;6.588;2023-02-03T03:12:09;45.12;33.08;68.05;;
76767;Laerm;65707;52.362;6.588;2023-02-03T03:14:44;44.34;33.18;66.17;;
76767;Laerm;65707;52.362;6.588;2023-02-03T03:17:20;44.02;33.12;67.46;;
76767;Laerm;65707;52.362;6.588;2023-02-03T03:19:55;45.20;34.30;70.83;;
76767;Laerm;65707;52.362;6.588;2023-02-03T03:22:28;45.17;33.39;66.81;;
76767;Laerm;65707;52.362;6.588;2023-02-03T03:25:00;44.49;33.43;65.80;;
76767;Laerm;65707;52.362;6.588;2023-02-03T03:27:34;43.42;34.34;61.65;;
76767;Laerm;65707;52.362;6.588;2023-02-03T03:30:09;46.23;34.96;66.42;;
76767;Laerm;65707;52.362;6.588;2023-02-03T03:32:37;51.34;34.67;80.83;;
76767;Laerm;65707;52.362;6.588;2023-02-03T03:35:07;42.45;34.00;59.36;;
76767;Laerm;65707;52.362;6.588;2023-02-03T03:37:37;48.73;35.36;70.62;;
76767;Laerm;65707;52.362;6.588;2023-02-03T03:40:12;42.03;33.76;64.84;;
76767;Laerm;65707;52.362;6.588;2023-02-03T03:42:49;45.46;34.83;63.98;;
76767;Laerm;65707;52.362;6.588;2023-02-03T03:45:22;49.20;36.29;73.63;;
76767;Laerm;65707;52.362;6.588;2023-02-03T03:47:56;43.51;34.09;63.54;;
76767;Laerm;65707;52.362;6.588;2023-02-03T03:50:31;48.84;34.33;73.17;;
76767;Laerm;65707;52.362;6.588;2023-02-03T03:53:03;50.17;35.59;73.52;;
76767;Laerm;65707;52.362;6.588;2023-02-03T03:55:34;46.42;35.76;67.64;;
76767;Laerm;65707;52.362;6.588;2023-02-03T03:58:04;46.28;35.17;71.42;;
76767;Laerm;65707;52.362;6.588;2023-02-03T04:00:37;45.03;33.44;64.75;;
76767;Laerm;65707;52.362;6.588;2023-02-03T04:03:11;47.97;35.94;72.90;;
76767;Laerm;65707;52.362;6.588;2023-02-03T04:05:42;71.80;37.82;84.57;;
76767;Laerm;65707;52.362;6.588;2023-02-03T04:08:09;47.58;34.26;70.90;;
76767;Laerm;65707;52.362;6.588;2023-02-03T04:10:38;46.56;34.34;69.52;;
76767;Laerm;65707;52.362;6.588;2023-02-03T04:13:06;61.29;35.51;79.40;;
76767;Laerm;65707;52.362;6.588;2023-02-03T04:15:34;48.36;36.40;69.13;;
76767;Laerm;65707;52.362;6.588;2023-02-03T04:18:01;46.09;36.13;65.21;;
76767;Laerm;65707;52.362;6.588;2023-02-03T04:20:30;44.61;37.53;65.38;;
76767;Laerm;65707;52.362;6.588;2023-02-03T04:22:59;43.71;38.16;60.37;;
76767;Laerm;65707;52.362;6.588;2023-02-03T04:25:26;50.97;38.40;73.29;;
76767;Laerm;65707;52.362;6.588;2023-02-03T04:27:54;50.35;38.33;72.18;;
76767;Laerm;65707;52.362;6.588;2023-02-03T04:30:21;48.24;37.75;68.22;;
76767;Laerm;65707;52.362;6.588;2023-02-03T04:32:48;43.75;38.93;64.88;;
76767;Laerm;65707;52.362;6.588;2023-02-03T04:35:15;47.76;38.10;71.49;;
76767;Laerm;65707;52.362;6.588;2023-02-03T04:37:42;56.29;37.10;74.07;;
76767;Laerm;65707;52.362;6.588;2023-02-03T04:40:11;44.17;37.56;56.09;;
76767;Laerm;65707;52.362;6.588;2023-02-03T04:42:40;61.78;37.53;79.47;;
76767;Laerm;65707;52.362;6.588;2023-02-03T04:45:09;45.79;37.65;69.37;;
76767;Laerm;65707;52.362;6.588;2023-02-03T04:47:37;45.96;38.39;65.26;;
76767;Laerm;65707;52.362;6.588;2023-02-03T04:50:06;50.07;38.42;75.27;;
76767;Laerm;65707;52.362;6.588;2023-02-03T04:52:33;50.11;38.88;74.79;;
76767;Laerm;65707;52.362;6.588;2023-02-03T04:54:59;52.67;38.19;73.53;;
76767;Laerm;65707;52.362;6.588;2023-02-03T04:57:27;46.09;38.59;65.75;;
76767;Laerm;65707;52.362;6.588;2023-02-03T04:59:54;55.11;40.40;77.38;;
76767;Laerm;65707;52.362;6.588;2023-02-03T05:02:23;44.70;38.57;67.39;;
76767;Laerm;65707;52.362;6.588;2023-02-03T05:04:50;43.77;37.37;62.82;;
76767;Laerm;65707;52.362;6.588;2023-02-03T05:07:17;47.34;38.91;65.28;;
76767;Laerm;65707;52.362;6.588;2023-02-03T05:09:44;55.56;39.14;74.11;;
76767;Laerm;65707;52.362;6.588;2023-02-03T05:12:11;61.73;40.03;77.95;;
76767;Laerm;65707;52.362;6.588;2023-02-03T05:14:39;48.92;40.00;71.53;;
76767;Laerm;65707;52.362;6.588;2023-02-03T05:17:06;51.58;39.65;69.53;;
76767;Laerm;65707;52.362;6.588;2023-02-03T05:19:33;44.93;40.13;59.30;;
76767;Laerm;65707;52.362;6.588;2023-02-03T05:21:59;59.19;41.89;84.19;;
76767;Laerm;65707;52.362;6.588;2023-02-03T05:24:26;46.56;39.99;65.98;;
76767;Laerm;65707;52.362;6.588;2023-02-03T05:26:53;51.97;40.00;75.26;;
76767;Laerm;65707;52.362;6.588;2023-02-03T05:29:20;51.99;41.55;76.32;;
76767;Laerm;65707;52.362;6.588;2023-02-03T05:31:48;54.27;42.73;71.15;;
76767;Laerm;65707;52.362;6.588;2023-02-03T05:34:14;51.78;42.11;71.76;;
76767;Laerm;65707;52.362;6.588;2023-02-03T05:36:41;50.94;42.25;71.56;;
76767;Laerm;65707;52.362;6.588;2023-02-03T05:39:08;56.95;41.72;74.82;;
76767;Laerm;65707;52.362;6.588;2023-02-03T05:41:35;61.20;40.71;79.33;;
76767;Laerm;65707;52.362;6.588;2023-02-03T05:44:20;71.24;41.95;84.38;;
76767;Laerm;65707;52.362;6.588;2023-02-03T05:46:50;50.22;42.65;71.67;;
76767;Laerm;65707;52.362;6.588;2023-02-03T05:49:18;51.19;41.32;73.26;;
76767;Laerm;65707;52.362;6.588;2023-02-03T05:51:45;53.74;40.24;76.57;;
76767;Laerm;65707;52.362;6.588;2023-02-03T05:54:13;54.73;43.05;78.15;;
76767;Laerm;65707;52.362;6.588;2023-02-03T05:56:40;58.97;43.64;77.42;;
76767;Laerm;65707;52.362;6.588;2023-02-03T05:59:07;55.88;41.36;79.29;;
76767;Laerm;65707;52.362;6.588;2023-02-03T06:01:35;54.72;43.43;69.13;;
76767;Laerm;65707;52.362;6.588;2023-02-03T06:04:04;50.51;41.84;73.38;;
76767;Laerm;65707;52.362;6.588;2023-02-03T06:06:32;55.07;43.01;73.85;;
76767;Laerm;65707;52.362;6.588;2023-02-03T06:08:59;58.94;42.98;74.28;;
76767;Laerm;65707;52.362;6.588;2023-02-03T06:11:26;62.26;43.61;79.00;;
76767;Laerm;65707;52.362;6.588;2023-02-03T06:13:55;69.26;43.45;84.29;;
76767;Laerm;65707;52.362;6.588;2023-02-03T06:16:23;50.07;43.14;68.80;;
76767;Laerm;65707;52.362;6.588;2023-02-03T06:18:50;61.45;43.89;80.98;;
76767;Laerm;65707;52.362;6.588;2023-02-03T06:21:19;54.30;43.86;82.20;;
76767;Laerm;65707;52.362;6.588;2023-02-03T06:23:47;57.40;43.26;79.00;;
76767;Laerm;65707;52.362;6.588;2023-02-03T06:26:14;56.13;43.24;75.01;;
76767;Laerm;65707;52.362;6.588;2023-02-03T06:28:41;53.81;42.56;77.10;;
76767;Laerm;65707;52.362;6.588;2023-02-03T06:31:07;56.78;44.82;71.61;;
76767;Laerm;65707;52.362;6.588;2023-02-03T06:33:34;51.54;42.94;71.59;;
76767;Laerm;65707;52.362;6.588;2023-02-03T06:36:02;50.39;43.32;77.45;;
76767;Laerm;65707;52.362;6.588;2023-02-03T06:38:30;52.82;43.67;79.56;;
76767;Laerm;65707;52.362;6.588;2023-02-03T06:40:57;61.12;43.23;78.21;;
76767;Laerm;65707;52.362;6.588;2023-02-03T06:43:24;59.62;44.23;82.69;;
76767;Laerm;65707;52.362;6.588;2023-02-03T06:45:51;60.12;44.20;85.93;;
76767;Laerm;65707;52.362;6.588;2023-02-03T06:48:18;56.94;45.38;77.86;;
76767;Laerm;65707;52.362;6.588;2023-02-03T06:50:45;63.07;44.81;80.96;;
76767;Laerm;65707;52.362;6.588;2023-02-03T06:53:12;56.37;43.74;77.65;;
76767;Laerm;65707;52.362;6.588;2023-02-03T06:55:40;56.30;44.16;73.56;;
76767;Laerm;65707;52.362;6.588;2023-02-03T06:58:07;57.10;44.42;74.45;;
76767;Laerm;65707;52.362;6.588;2023-02-03T07:00:34;57.34;45.27;73.92;;
76767;Laerm;65707;52.362;6.588;2023-02-03T07:03:01;59.11;42.59;81.20;;
76767;Laerm;65707;52.362;6.588;2023-02-03T07:05:28;54.61;43.38;75.26;;
76767;Laerm;65707;52.362;6.588;2023-02-03T07:07:55;62.15;45.51;78.39;;
76767;Laerm;65707;52.362;6.588;2023-02-03T07:10:23;62.30;43.10;78.36;;
76767;Laerm;65707;52.362;6.588;2023-02-03T07:12:51;51.06;44.45;68.23;;
76767;Laerm;65707;52.362;6.588;2023-02-03T07:15:18;55.55;43.68;76.27;;
76767;Laerm;65707;52.362;6.588;2023-02-03T07:17:47;62.08;45.41;91.74;;
76767;Laerm;65707;52.362;6.588;2023-02-03T07:20:20;60.36;44.29;78.75;;
76767;Laerm;65707;52.362;6.588;2023-02-03T07:22:53;51.37;44.49;71.20;;
76767;Laerm;65707;52.362;6.588;2023-02-03T07:25:22;56.43;43.74;73.51;;
76767;Laerm;65707;52.362;6.588;2023-02-03T07:27:51;52.73;43.85;75.35;;
76767;Laerm;65707;52.362;6.588;2023-02-03T07:30:18;57.22;44.22;78.37;;
76767;Laerm;65707;52.362;6.588;2023-02-03T07:32:46;56.61;45.51;77.48;;
76767;Laerm;65707;52.362;6.588;2023-02-03T07:35:14;52.15;43.65;72.87;;
76767;Laerm;65707;52.362;6.588;2023-02-03T07:37:42;58.91;44.26;75.50;;
76767;Laerm;65707;52.362;6.588;2023-02-03T07:40:11;61.63;43.41;82.15;;
76767;Laerm;65707;52.362;6.588;2023-02-03T07:42:40;65.65;44.78;81.52;;
76767;Laerm;65707;52.362;6.588;2023-02-03T07:45:11;58.01;44.29;82.40;;
76767;Laerm;65707;52.362;6.588;2023-02-03T07:47:38;51.38;43.09;70.56;;
76767;Laerm;65707;52.362;6.588;2023-02-03T07:50:06;62.40;44.03;82.90;;
76767;Laerm;65707;52.362;6.588;2023-02-03T07:52:33;51.86;43.19;78.77;;
76767;Laerm;65707;52.362;6.588;2023-02-03T07:55:01;57.21;43.74;74.99;;
76767;Laerm;65707;52.362;6.588;2023-02-03T07:57:27;61.75;43.19;82.80;;
76767;Laerm;65707;52.362;6.588;2023-02-03T07:59:54;57.07;45.69;76.04;;
76767;Laerm;65707;52.362;6.588;2023-02-03T08:02:22;58.68;44.23;80.58;;
76767;Laerm;65707;52.362;6.588;2023-02-03T08:04:49;55.44;43.83;74.56;;
76767;Laerm;65707;52.362;6.588;2023-02-03T08:07:16;56.86;45.48;79.15;;
76767;Laerm;65707;52.362;6.588;2023-02-03T08:09:43;62.13;45.77;78.39;;
76767;Laerm;65707;52.362;6.588;2023-02-03T08:12:10;52.91;44.17;70.67;;
76767;Laerm;65707;52.362;6.588;2023-02-03T08:14:37;52.75;42.66;67.69;;
76767;Laerm;65707;52.362;6.588;2023-02-03T08:17:03;52.32;44.58;73.83;;
76767;Laerm;65707;52.362;6.588;2023-02-03T08:19:31;54.92;46.03;72.84;;
76767;Laerm;65707;52.362;6.588;2023-02-03T08:21:58;61.01;44.01;79.44;;
76767;Laerm;65707;52.362;6.588;2023-02-03T08:24:25;57.80;44.65;77.43;;
76767;Laerm;65707;52.362;6.588;2023-02-03T08:26:52;52.39;43.53;74.81;;
76767;Laerm;65707;52.362;6.588;2023-02-03T08:29:19;55.97;43.45;72.22;;
76767;Laerm;65707;52.362;6.588;2023-02-03T08:31:46;65.54;44.62;80.54;;
76767;Laerm;65707;52.362;6.588;2023-02-03T08:34:12;53.67;43.13;76.27;;
76767;Laerm;65707;52.362;6.588;2023-02-03T08:36:41;48.89;42.34;69.30;;
76767;Laerm;65707;52.362;6.588;2023-02-03T08:39:08;54.27;43.98;75.48;;
76767;Laerm;65707;52.362;6.588;2023-02-03T08:41:35;58.69;43.52;73.89;;
76767;Laerm;65707;52.362;6.588;2023-02-03T08:44:02;60.90;43.68;77.80;;
76767;Laerm;65707;52.362;6.588;2023-02-03T08:46:29;58.42;43.94;78.35;;
76767;Laerm;65707;52.362;6.588;2023-02-03T08:48:55;53.56;42.64;75.16;;
76767;Laerm;65707;52.362;6.588;2023-02-03T08:51:22;51.87;43.90;71.39;;
76767;Laerm;65707;52.362;6.588;2023-02-03T08:53:51;66.53;43.91;82.52;;
76767;Laerm;65707;52.362;6.588;2023-02-03T08:56:18;61.41;44.58;81.30;;
76767;Laerm;65707;52.362;6.588;2023-02-03T08:58:45;52.81;43.91;66.30;;
76767;Laerm;65707;52.362;6.588;2023-02-03T09:01:13;52.67;44.18;69.42;;
76767;Laerm;65707;52.362;6.588;2023-02-03T09:03:40;57.45;44.86;80.05;;
76767;Laerm;65707;52.362;6.588;2023-02-03T09:06:09;66.89;44.70;83.25;;
76767;Laerm;65707;52.362;6.588;2023-02-03T09:08:38;60.46;45.65;82.90;;
76767;Laerm;65707;52.362;6.588;2023-02-03T09:11:09;61.37;44.85;81.95;;
76767;Laerm;65707;52.362;6.588;2023-02-03T09:13:36;56.47;44.08;76.94;;
76767;Laerm;65707;52.362;6.588;2023-02-03T09:16:05;51.87;43.50;72.11;;
76767;Laerm;65707;52.362;6.588;2023-02-03T09:18:31;62.79;44.65;80.18;;
76767;Laerm;65707;52.362;6.588;2023-02-03T09:21:04;67.85;45.84;79.83;;
76767;Laerm;65707;52.362;6.588;2023-02-03T09:23:31;61.17;45.27;84.84;;
76767;Laerm;65707;52.362;6.588;2023-02-03T09:26:01;59.29;45.05;86.25;;
76767;Laerm;65707;52.362;6.588;2023-02-03T09:28:29;53.66;44.48;70.32;;
76767;Laerm;65707;52.362;6.588;2023-02-03T09:30:59;59.19;44.00;77.09;;
76767;Laerm;65707;52.362;6.588;2023-02-03T09:33:26;54.36;44.48;73.18;;
76767;Laerm;65707;52.362;6.588;2023-02-03T09:35:54;55.65;44.55;76.96;;
76767;Laerm;65707;52.362;6.588;2023-02-03T09:38:23;52.98;43.83;73.32;;
76767;Laerm;65707;52.362;6.588;2023-02-03T09:40:58;56.21;42.83;75.62;;
76767;Laerm;65707;52.362;6.588;2023-02-03T09:43:34;53.29;43.04;73.37;;
76767;Laerm;65707;52.362;6.588;2023-02-03T09:46:10;58.53;43.84;72.15;;
76767;Laerm;65707;52.362;6.588;2023-02-03T09:48:43;55.08;44.42;73.68;;
76767;Laerm;65707;52.362;6.588;2023-02-03T09:51:19;64.08;43.61;77.29;;
76767;Laerm;65707;52.362;6.588;2023-02-03T09:53:55;57.65;43.67;77.30;;
76767;Laerm;65707;52.362;6.588;2023-02-03T09:56:28;57.32;43.39;73.82;;
76767;Laerm;65707;52.362;6.588;2023-02-03T09:58:57;58.61;44.28;82.13;;
76767;Laerm;65707;52.362;6.588;2023-02-03T10:01:29;60.87;45.64;82.16;;
76767;Laerm;65707;52.362;6.588;2023-02-03T10:04:04;48.59;43.44;63.80;;
76767;Laerm;65707;52.362;6.588;2023-02-03T10:06:42;54.03;42.74;73.90;;
76767;Laerm;65707;52.362;6.588;2023-02-03T10:09:33;58.83;44.62;79.66;;
76767;Laerm;65707;52.362;6.588;2023-02-03T10:12:35;61.31;43.82;78.57;;
76767;Laerm;65707;52.362;6.588;2023-02-03T10:15:41;56.52;44.51;79.34;;
76767;Laerm;65707;52.362;6.588;2023-02-03T10:18:14;50.78;43.33;75.05;;
76767;Laerm;65707;52.362;6.588;2023-02-03T10:20:48;62.61;43.71;78.51;;
76767;Laerm;65707;52.362;6.588;2023-02-03T10:23:23;60.08;44.30;78.20;;
76767;Laerm;65707;52.362;6.588;2023-02-03T10:25:54;58.76;43.02;75.10;;
76767;Laerm;65707;52.362;6.588;2023-02-03T10:28:24;52.40;43.99;77.08;;
76767;Laerm;65707;52.362;6.588;2023-02-03T10:30:58;53.47;42.67;71.49;;
76767;Laerm;65707;52.362;6.588;2023-02-03T10:33:28;51.28;41.70;70.25;;
76767;Laerm;65707;52.362;6.588;2023-02-03T10:36:05;52.85;42.63;70.75;;
76767;Laerm;65707;52.362;6.588;2023-02-03T10:38:49;57.43;43.92;76.01;;
76767;Laerm;65707;52.362;6.588;2023-02-03T10:41:19;61.89;44.38;79.59;;
76767;Laerm;65707;52.362;6.588;2023-02-03T10:43:49;53.94;43.41;72.75;;
76767;Laerm;65707;52.362;6.588;2023-02-03T10:46:20;71.60;44.23;84.88;;
76767;Laerm;65707;52.362;6.588;2023-02-03T10:48:54;53.16;43.56;72.45;;
76767;Laerm;65707;52.362;6.588;2023-02-03T10:51:24;59.14;42.86;77.28;;
76767;Laerm;65707;52.362;6.588;2023-02-03T10:53:52;55.32;41.92;78.44;;
76767;Laerm;65707;52.362;6.588;2023-02-03T10:56:23;55.83;43.22;74.29;;
76767;Laerm;65707;52.362;6.588;2023-02-03T10:58:54;51.35;42.79;69.89;;
76767;Laerm;65707;52.362;6.588;2023-02-03T11:01:26;58.74;43.97;78.68;;
76767;Laerm;65707;52.362;6.588;2023-02-03T11:03:57;52.76;43.43;71.62;;
76767;Laerm;65707;52.362;6.588;2023-02-03T11:06:26;55.24;43.09;75.81;;
76767;Laerm;65707;52.362;6.588;2023-02-03T11:08:54;54.49;42.18;72.12;;
76767;Laerm;65707;52.362;6.588;2023-02-03T11:11:25;60.73;41.77;77.51;;
76767;Laerm;65707;52.362;6.588;2023-02-03T11:13:54;50.33;42.12;69.45;;
76767;Laerm;65707;52.362;6.588;2023-02-03T11:16:24;47.82;40.41;64.45;;
76767;Laerm;65707;52.362;6.588;2023-02-03T11:18:57;49.76;43.12;69.58;;
76767;Laerm;65707;52.362;6.588;2023-02-03T11:21:29;52.04;42.72;77.39;;
76767;Laerm;65707;52.362;6.588;2023-02-03T11:24:04;49.23;42.82;69.37;;
76767;Laerm;65707;52.362;6.588;2023-02-03T11:26:38;51.44;42.66;71.40;;
76767;Laerm;65707;52.362;6.588;2023-02-03T11:29:14;54.33;43.93;74.49;;
76767;Laerm;65707;52.362;6.588;2023-02-03T11:31:48;52.78;43.86;69.45;;
76767;Laerm;65707;52.362;6.588;2023-02-03T11:34:18;47.27;42.98;66.67;;
76767;Laerm;65707;52.362;6.588;2023-02-03T11:36:48;48.75;42.42;60.26;;
76767;Laerm;65707;52.362;6.588;2023-02-03T11:39:25;61.15;41.06;79.37;;
76767;Laerm;65707;52.362;6.588;2023-02-03T11:41:53;57.74;42.61;70.50;;
76767;Laerm;65707;52.362;6.588;2023-02-03T11:44:24;51.33;41.63;69.37;;
76767;Laerm;65707;52.362;6.588;2023-02-03T11:46:59;62.75;41.64;79.31;;
76767;Laerm;65707;52.362;6.588;2023-02-03T11:50:13;48.99;40.88;73.02;;
76767;Laerm;65707;52.362;6.588;2023-02-03T11:53:16;52.62;40.80;73.18;;
76767;Laerm;65707;52.362;6.588;2023-02-03T11:56:05;53.81;42.46;70.24;;
76767;Laerm;65707;52.362;6.588;2023-02-03T11:59:02;59.01;40.49;76.65;;
76767;Laerm;65707;52.362;6.588;2023-02-03T12:05:16;52.39;42.41;73.87;;
76767;Laerm;65707;52.362;6.588;2023-02-03T12:08:06;50.56;40.65;69.50;;
76767;Laerm;65707;52.362;6.588;2023-02-03T12:10:51;60.83;41.78;77.33;;
76767;Laerm;65707;52.362;6.588;2023-02-03T12:13:39;50.36;42.93;68.56;;
76767;Laerm;65707;52.362;6.588;2023-02-03T12:16:40;49.35;41.15;70.77;;
76767;Laerm;65707;52.362;6.588;2023-02-03T12:19:19;49.48;40.36;76.00;;
76767;Laerm;65707;52.362;6.588;2023-02-03T12:21:59;64.11;41.25;79.21;;
76767;Laerm;65707;52.362;6.588;2023-02-03T12:24:38;53.22;41.68;74.51;;
76767;Laerm;65707;52.362;6.588;2023-02-03T12:27:26;47.65;41.31;65.07;;
76767;Laerm;65707;52.362;6.588;2023-02-03T12:30:08;53.94;42.16;75.62;;
76767;Laerm;65707;52.362;6.588;2023-02-03T12:32:44;52.54;42.23;74.81;;
76767;Laerm;65707;52.362;6.588;2023-02-03T12:35:20;53.66;42.02;78.83;;
76767;Laerm;65707;52.362;6.588;2023-02-03T12:37:58;67.40;42.39;82.82;;
76767;Laerm;65707;52.362;6.588;2023-02-03T12:40:35;61.36;41.66;79.30;;
76767;Laerm;65707;52.362;6.588;2023-02-03T12:43:28;48.27;40.97;70.57;;
76767;Laerm;65707;52.362;6.588;2023-02-03T12:46:09;68.38;41.98;81.32;;
76767;Laerm;65707;52.362;6.588;2023-02-03T12:48:48;57.13;40.38;77.71;;
76767;Laerm;65707;52.362;6.588;2023-02-03T12:51:30;56.97;41.24;77.52;;
76767;Laerm;65707;52.362;6.588;2023-02-03T12:54:15;52.71;41.50;73.48;;
76767;Laerm;65707;52.362;6.588;2023-02-03T12:56:47;55.31;42.41;73.22;;
76767;Laerm;65707;52.362;6.588;2023-02-03T12:59:22;52.40;40.78;68.69;;
76767;Laerm;65707;52.362;6.588;2023-02-03T13:01:56;52.76;40.90;76.64;;
76767;Laerm;65707;52.362;6.588;2023-02-03T13:04:33;49.54;40.99;73.64;;
76767;Laerm;65707;52.362;6.588;2023-02-03T13:07:10;52.76;42.09;72.10;;
76767;Laerm;65707;52.362;6.588;2023-02-03T13:09:48;62.80;42.63;78.26;;
76767;Laerm;65707;52.362;6.588;2023-02-03T13:12:28;48.61;41.50;65.66;;
76767;Laerm;65707;52.362;6.588;2023-02-03T13:15:09;50.16;41.86;71.70;;
76767;Laerm;65707;52.362;6.588;2023-02-03T13:17:51;49.38;39.87;68.50;;
76767;Laerm;65707;52.362;6.588;2023-02-03T13:20:23;62.10;41.93;80.51;;
76767;Laerm;65707;52.362;6.588;2023-02-03T13:22:51;47.86;41.40;65.23;;
76767;Laerm;65707;52.362;6.588;2023-02-03T13:25:24;53.89;42.15;73.34;;
76767;Laerm;65707;52.362;6.588;2023-02-03T13:28:08;49.91;40.93;75.85;;
76767;Laerm;65707;52.362;6.588;2023-02-03T13:30:58;54.30;41.65;70.13;;
76767;Laerm;65707;52.362;6.588;2023-02-03T13:34:03;45.78;39.89;61.37;;
76767;Laerm;65707;52.362;6.588;2023-02-03T13:40:06;63.12;41.25;78.99;;
76767;Laerm;65707;52.362;6.588;2023-02-03T13:42:40;65.36;41.39;81.89;;
76767;Laerm;65707;52.362;6.588;2023-02-03T13:45:20;68.29;42.72;81.87;;
76767;Laerm;65707;52.362;6.588;2023-02-03T13:47:52;46.16;40.14;63.76;;
76767;Laerm;65707;52.362;6.588;2023-02-03T13:50:23;61.30;41.61;79.14;;
76767;Laerm;65707;52.362;6.588;2023-02-03T13:53:00;58.93;40.89;84.95;;
76767;Laerm;65707;52.362;6.588;2023-02-03T13:55:37;55.25;41.17;79.71;;
76767;Laerm;65707;52.362;6.588;2023-02-03T13:58:18;54.86;41.05;80.20;;
76767;Laerm;65707;52.362;6.588;2023-02-03T14:01:26;58.43;41.61;81.84;;
76767;Laerm;65707;52.362;6.588;2023-02-03T14:03:54;56.17;40.37;83.31;;
76767;Laerm;65707;52.362;6.588;2023-02-03T14:06:55;59.42;40.81;83.93;;
76767;Laerm;65707;52.362;6.588;2023-02-03T14:09:35;56.66;41.39;84.10;;
76767;Laerm;65707;52.362;6.588;2023-02-03T14:15:22;55.59;41.08;84.98;;
76767;Laerm;65707;52.362;6.588;2023-02-03T14:20:55;59.60;41.28;83.66;;
76767;Laerm;65707;52.362;6.588;2023-02-03T14:23:37;54.59;42.03;74.33;;
76767;Laerm;65707;52.362;6.588;2023-02-03T14:26:05;52.47;41.28;73.04;;
76767;Laerm;65707;52.362;6.588;2023-02-03T14:28:42;51.69;40.36;67.66;;